sensor_id;sensor_type;location;lat;lon;timestamp;P1;durP1;ratioP1;P2;durP2;ratioP2
58354;SDS011;44160;49.080;19.302;2023-07-24T00:01:07;5.68;;;4.07;;
58354;SDS011;44160;49.080;19.302;2023-07-24T00:03:33;9.45;;;3.90;;
58354;SDS011;44160;49.080;19.302;2023-07-24T00:06:00;5.25;;;3.75;;
58354;SDS011;44160;49.080;19.302;2023-07-24T00:08:26;6.25;;;3.67;;
58354;SDS011;44160;49.080;19.302;2023-07-24T00:10:52;6.07;;;3.95;;
58354;SDS011;44160;49.080;19.302;2023-07-24T00:13:18;8.43;;;4.32;;
58354;SDS011;44160;49.080;19.302;2023-07-24T00:15:44;5.93;;;3.80;;
58354;SDS011;44160;49.080;19.302;2023-07-24T00:18:10;6.68;;;4.20;;
58354;SDS011;44160;49.080;19.302;2023-07-24T00:20:36;6.18;;;3.50;;
58354;SDS011;44160;49.080;19.302;2023-07-24T00:23:02;7.30;;;4.45;;
58354;SDS011;44160;49.080;19.302;2023-07-24T00:25:29;7.00;;;3.85;;
58354;SDS011;44160;49.080;19.302;2023-07-24T00:27:55;6.65;;;3.95;;
58354;SDS011;44160;49.080;19.302;2023-07-24T00:30:21;6.00;;;3.50;;
58354;SDS011;44160;49.080;19.302;2023-07-24T00:32:47;9.15;;;4.45;;
58354;SDS011;44160;49.080;19.302;2023-07-24T00:35:13;6.60;;;3.53;;
58354;SDS011;44160;49.080;19.302;2023-07-24T00:37:39;6.28;;;4.00;;
58354;SDS011;44160;49.080;19.302;2023-07-24T00:40:06;8.43;;;3.90;;
58354;SDS011;44160;49.080;19.302;2023-07-24T00:42:32;7.03;;;4.10;;
58354;SDS011;44160;49.080;19.302;2023-07-24T00:44:58;6.03;;;4.28;;
58354;SDS011;44160;49.080;19.302;2023-07-24T00:47:25;7.88;;;4.30;;
58354;SDS011;44160;49.080;19.302;2023-07-24T00:49:52;8.25;;;4.72;;
58354;SDS011;44160;49.080;19.302;2023-07-24T00:52:18;5.82;;;3.92;;
58354;SDS011;44160;49.080;19.302;2023-07-24T00:54:44;6.97;;;4.07;;
58354;SDS011;44160;49.080;19.302;2023-07-24T00:57:11;6.28;;;3.72;;
58354;SDS011;44160;49.080;19.302;2023-07-24T00:59:37;6.63;;;3.88;;
58354;SDS011;44160;49.080;19.302;2023-07-24T01:02:03;7.10;;;3.88;;
58354;SDS011;44160;49.080;19.302;2023-07-24T01:04:29;8.35;;;4.07;;
58354;SDS011;44160;49.080;19.302;2023-07-24T01:06:55;9.40;;;4.22;;
58354;SDS011;44160;49.080;19.302;2023-07-24T01:09:21;6.00;;;3.70;;
58354;SDS011;44160;49.080;19.302;2023-07-24T01:11:50;7.70;;;3.97;;
58354;SDS011;44160;49.080;19.302;2023-07-24T01:14:27;6.40;;;4.43;;
58354;SDS011;44160;49.080;19.302;2023-07-24T01:16:55;7.97;;;4.18;;
58354;SDS011;44160;49.080;19.302;2023-07-24T01:19:42;7.70;;;4.40;;
58354;SDS011;44160;49.080;19.302;2023-07-24T01:22:18;9.25;;;4.05;;
58354;SDS011;44160;49.080;19.302;2023-07-24T01:24:56;5.93;;;3.55;;
58354;SDS011;44160;49.080;19.302;2023-07-24T01:27:25;7.22;;;3.65;;
58354;SDS011;44160;49.080;19.302;2023-07-24T01:29:51;7.30;;;3.70;;
58354;SDS011;44160;49.080;19.302;2023-07-24T01:32:17;6.70;;;4.07;;
58354;SDS011;44160;49.080;19.302;2023-07-24T01:34:44;6.85;;;4.72;;
58354;SDS011;44160;49.080;19.302;2023-07-24T01:37:10;8.63;;;3.97;;
58354;SDS011;44160;49.080;19.302;2023-07-24T01:39:37;6.82;;;4.03;;
58354;SDS011;44160;49.080;19.302;2023-07-24T01:42:03;6.40;;;4.03;;
58354;SDS011;44160;49.080;19.302;2023-07-24T01:44:30;8.05;;;4.63;;
58354;SDS011;44160;49.080;19.302;2023-07-24T01:46:56;6.65;;;3.70;;
58354;SDS011;44160;49.080;19.302;2023-07-24T01:49:22;6.97;;;4.30;;
58354;SDS011;44160;49.080;19.302;2023-07-24T01:51:48;6.78;;;4.28;;
58354;SDS011;44160;49.080;19.302;2023-07-24T01:54:14;8.48;;;5.10;;
58354;SDS011;44160;49.080;19.302;2023-07-24T01:56:40;7.07;;;3.90;;
58354;SDS011;44160;49.080;19.302;2023-07-24T01:59:06;6.28;;;4.22;;
58354;SDS011;44160;49.080;19.302;2023-07-24T02:01:32;6.15;;;3.85;;
58354;SDS011;44160;49.080;19.302;2023-07-24T02:03:58;7.30;;;4.47;;
58354;SDS011;44160;49.080;19.302;2023-07-24T02:06:24;4.68;;;3.10;;
58354;SDS011;44160;49.080;19.302;2023-07-24T02:08:50;5.50;;;3.97;;
58354;SDS011;44160;49.080;19.302;2023-07-24T02:11:17;5.70;;;3.92;;
58354;SDS011;44160;49.080;19.302;2023-07-24T02:13:43;6.45;;;4.22;;
58354;SDS011;44160;49.080;19.302;2023-07-24T02:16:10;7.32;;;3.63;;
58354;SDS011;44160;49.080;19.302;2023-07-24T02:18:36;8.50;;;4.20;;
58354;SDS011;44160;49.080;19.302;2023-07-24T02:21:02;10.48;;;4.18;;
58354;SDS011;44160;49.080;19.302;2023-07-24T02:23:28;7.40;;;4.10;;
58354;SDS011;44160;49.080;19.302;2023-07-24T02:25:54;7.50;;;4.30;;
58354;SDS011;44160;49.080;19.302;2023-07-24T02:28:20;6.47;;;4.40;;
58354;SDS011;44160;49.080;19.302;2023-07-24T02:30:47;6.70;;;4.13;;
58354;SDS011;44160;49.080;19.302;2023-07-24T02:33:13;8.27;;;4.47;;
58354;SDS011;44160;49.080;19.302;2023-07-24T02:35:40;5.82;;;4.13;;
58354;SDS011;44160;49.080;19.302;2023-07-24T02:38:06;6.32;;;3.97;;
58354;SDS011;44160;49.080;19.302;2023-07-24T02:40:32;6.32;;;4.50;;
58354;SDS011;44160;49.080;19.302;2023-07-24T02:42:58;5.68;;;3.50;;
58354;SDS011;44160;49.080;19.302;2023-07-24T02:45:25;8.25;;;3.75;;
58354;SDS011;44160;49.080;19.302;2023-07-24T02:47:50;5.78;;;3.53;;
58354;SDS011;44160;49.080;19.302;2023-07-24T02:50:17;6.97;;;3.97;;
58354;SDS011;44160;49.080;19.302;2023-07-24T02:52:43;8.48;;;3.90;;
58354;SDS011;44160;49.080;19.302;2023-07-24T02:55:09;5.43;;;3.72;;
58354;SDS011;44160;49.080;19.302;2023-07-24T02:57:35;5.82;;;3.80;;
58354;SDS011;44160;49.080;19.302;2023-07-24T03:00:01;6.28;;;4.18;;
58354;SDS011;44160;49.080;19.302;2023-07-24T03:02:28;8.70;;;4.15;;
58354;SDS011;44160;49.080;19.302;2023-07-24T03:04:54;6.55;;;4.43;;
58354;SDS011;44160;49.080;19.302;2023-07-24T03:07:20;6.07;;;4.15;;
58354;SDS011;44160;49.080;19.302;2023-07-24T03:09:45;6.95;;;4.30;;
58354;SDS011;44160;49.080;19.302;2023-07-24T03:12:11;13.65;;;5.15;;
58354;SDS011;44160;49.080;19.302;2023-07-24T03:14:37;18.48;;;6.00;;
58354;SDS011;44160;49.080;19.302;2023-07-24T03:17:03;23.38;;;6.20;;
58354;SDS011;44160;49.080;19.302;2023-07-24T03:19:29;11.57;;;5.53;;
58354;SDS011;44160;49.080;19.302;2023-07-24T03:21:55;12.75;;;5.45;;
58354;SDS011;44160;49.080;19.302;2023-07-24T03:24:21;10.45;;;4.32;;
58354;SDS011;44160;49.080;19.302;2023-07-24T03:26:47;12.27;;;5.20;;
58354;SDS011;44160;49.080;19.302;2023-07-24T03:29:13;12.02;;;5.80;;
58354;SDS011;44160;49.080;19.302;2023-07-24T03:31:39;13.43;;;5.70;;
58354;SDS011;44160;49.080;19.302;2023-07-24T03:34:05;17.30;;;5.03;;
58354;SDS011;44160;49.080;19.302;2023-07-24T03:36:32;8.52;;;4.32;;
58354;SDS011;44160;49.080;19.302;2023-07-24T03:38:58;6.90;;;4.25;;
58354;SDS011;44160;49.080;19.302;2023-07-24T03:41:25;7.20;;;4.30;;
58354;SDS011;44160;49.080;19.302;2023-07-24T03:43:50;7.50;;;5.03;;
58354;SDS011;44160;49.080;19.302;2023-07-24T03:46:16;7.43;;;4.50;;
58354;SDS011;44160;49.080;19.302;2023-07-24T03:48:42;12.93;;;8.35;;
58354;SDS011;44160;49.080;19.302;2023-07-24T03:51:08;22.25;;;11.60;;
58354;SDS011;44160;49.080;19.302;2023-07-24T03:53:35;13.48;;;8.68;;
58354;SDS011;44160;49.080;19.302;2023-07-24T03:56:00;7.75;;;5.55;;
58354;SDS011;44160;49.080;19.302;2023-07-24T03:58:26;13.50;;;5.10;;
58354;SDS011;44160;49.080;19.302;2023-07-24T04:00:52;9.85;;;5.20;;
58354;SDS011;44160;49.080;19.302;2023-07-24T04:03:19;9.55;;;4.75;;
58354;SDS011;44160;49.080;19.302;2023-07-24T04:05:45;7.70;;;4.45;;
58354;SDS011;44160;49.080;19.302;2023-07-24T04:08:11;11.25;;;5.97;;
58354;SDS011;44160;49.080;19.302;2023-07-24T04:10:37;15.25;;;6.47;;
58354;SDS011;44160;49.080;19.302;2023-07-24T04:13:03;9.23;;;5.43;;
58354;SDS011;44160;49.080;19.302;2023-07-24T04:15:32;6.35;;;4.65;;
58354;SDS011;44160;49.080;19.302;2023-07-24T04:17:58;11.70;;;4.97;;
58354;SDS011;44160;49.080;19.302;2023-07-24T04:20:24;6.95;;;4.25;;
58354;SDS011;44160;49.080;19.302;2023-07-24T04:22:50;8.73;;;5.00;;
58354;SDS011;44160;49.080;19.302;2023-07-24T04:25:16;12.68;;;4.28;;
58354;SDS011;44160;49.080;19.302;2023-07-24T04:27:42;6.63;;;4.00;;
58354;SDS011;44160;49.080;19.302;2023-07-24T04:30:08;9.05;;;5.38;;
58354;SDS011;44160;49.080;19.302;2023-07-24T04:32:34;8.65;;;4.72;;
58354;SDS011;44160;49.080;19.302;2023-07-24T04:35:00;11.60;;;4.65;;
58354;SDS011;44160;49.080;19.302;2023-07-24T04:37:26;6.50;;;4.30;;
58354;SDS011;44160;49.080;19.302;2023-07-24T04:39:52;12.93;;;5.32;;
58354;SDS011;44160;49.080;19.302;2023-07-24T04:42:18;10.50;;;5.45;;
58354;SDS011;44160;49.080;19.302;2023-07-24T04:44:44;10.65;;;4.85;;
58354;SDS011;44160;49.080;19.302;2023-07-24T04:47:10;6.57;;;4.65;;
58354;SDS011;44160;49.080;19.302;2023-07-24T04:49:36;11.82;;;4.70;;
58354;SDS011;44160;49.080;19.302;2023-07-24T04:52:02;12.00;;;4.75;;
58354;SDS011;44160;49.080;19.302;2023-07-24T04:54:28;10.43;;;4.55;;
58354;SDS011;44160;49.080;19.302;2023-07-24T04:56:54;10.40;;;4.82;;
58354;SDS011;44160;49.080;19.302;2023-07-24T04:59:20;11.68;;;4.22;;
58354;SDS011;44160;49.080;19.302;2023-07-24T05:01:46;6.90;;;4.38;;
58354;SDS011;44160;49.080;19.302;2023-07-24T05:04:12;9.00;;;5.13;;
58354;SDS011;44160;49.080;19.302;2023-07-24T05:06:38;10.10;;;4.55;;
58354;SDS011;44160;49.080;19.302;2023-07-24T05:09:04;9.15;;;4.90;;
58354;SDS011;44160;49.080;19.302;2023-07-24T05:11:30;9.48;;;4.88;;
58354;SDS011;44160;49.080;19.302;2023-07-24T05:13:56;12.32;;;4.97;;
58354;SDS011;44160;49.080;19.302;2023-07-24T05:16:22;12.55;;;4.63;;
58354;SDS011;44160;49.080;19.302;2023-07-24T05:18:48;7.90;;;3.97;;
58354;SDS011;44160;49.080;19.302;2023-07-24T05:21:14;5.68;;;4.47;;
58354;SDS011;44160;49.080;19.302;2023-07-24T05:23:40;9.15;;;4.38;;
58354;SDS011;44160;49.080;19.302;2023-07-24T05:26:06;12.80;;;4.25;;
58354;SDS011;44160;49.080;19.302;2023-07-24T05:28:32;5.80;;;3.70;;
58354;SDS011;44160;49.080;19.302;2023-07-24T05:31:02;6.07;;;3.88;;
58354;SDS011;44160;49.080;19.302;2023-07-24T05:33:28;6.03;;;4.30;;
58354;SDS011;44160;49.080;19.302;2023-07-24T05:35:58;8.30;;;3.70;;
58354;SDS011;44160;49.080;19.302;2023-07-24T05:38:24;10.07;;;3.85;;
58354;SDS011;44160;49.080;19.302;2023-07-24T05:40:55;7.20;;;4.70;;
58354;SDS011;44160;49.080;19.302;2023-07-24T05:43:21;6.70;;;4.43;;
58354;SDS011;44160;49.080;19.302;2023-07-24T05:45:47;8.27;;;4.63;;
58354;SDS011;44160;49.080;19.302;2023-07-24T05:48:13;6.28;;;3.95;;
58354;SDS011;44160;49.080;19.302;2023-07-24T05:50:39;5.75;;;4.10;;
58354;SDS011;44160;49.080;19.302;2023-07-24T05:53:06;8.98;;;4.18;;
58354;SDS011;44160;49.080;19.302;2023-07-24T05:55:32;9.23;;;4.40;;
58354;SDS011;44160;49.080;19.302;2023-07-24T05:57:58;12.75;;;4.47;;
58354;SDS011;44160;49.080;19.302;2023-07-24T06:00:24;7.82;;;4.40;;
58354;SDS011;44160;49.080;19.302;2023-07-24T06:02:51;15.38;;;4.32;;
58354;SDS011;44160;49.080;19.302;2023-07-24T06:05:17;6.10;;;4.32;;
58354;SDS011;44160;49.080;19.302;2023-07-24T06:07:44;7.82;;;4.60;;
58354;SDS011;44160;49.080;19.302;2023-07-24T06:10:10;11.05;;;4.45;;
58354;SDS011;44160;49.080;19.302;2023-07-24T06:12:36;8.65;;;4.03;;
58354;SDS011;44160;49.080;19.302;2023-07-24T06:15:03;8.35;;;3.85;;
58354;SDS011;44160;49.080;19.302;2023-07-24T06:17:29;7.07;;;5.25;;
58354;SDS011;44160;49.080;19.302;2023-07-24T06:19:55;6.55;;;3.30;;
58354;SDS011;44160;49.080;19.302;2023-07-24T06:22:21;5.88;;;3.90;;
58354;SDS011;44160;49.080;19.302;2023-07-24T06:24:47;13.18;;;4.93;;
58354;SDS011;44160;49.080;19.302;2023-07-24T06:27:13;6.28;;;3.88;;
58354;SDS011;44160;49.080;19.302;2023-07-24T06:29:39;10.63;;;4.13;;
58354;SDS011;44160;49.080;19.302;2023-07-24T06:32:06;6.20;;;3.97;;
58354;SDS011;44160;49.080;19.302;2023-07-24T06:34:32;8.95;;;3.83;;
58354;SDS011;44160;49.080;19.302;2023-07-24T06:36:58;5.40;;;4.10;;
58354;SDS011;44160;49.080;19.302;2023-07-24T06:39:24;8.63;;;3.67;;
58354;SDS011;44160;49.080;19.302;2023-07-24T06:41:54;8.48;;;4.30;;
58354;SDS011;44160;49.080;19.302;2023-07-24T06:44:21;11.65;;;4.32;;
58354;SDS011;44160;49.080;19.302;2023-07-24T06:46:48;7.22;;;4.50;;
58354;SDS011;44160;49.080;19.302;2023-07-24T06:49:14;6.28;;;3.85;;
58354;SDS011;44160;49.080;19.302;2023-07-24T06:51:40;7.18;;;4.20;;
58354;SDS011;44160;49.080;19.302;2023-07-24T06:54:06;8.40;;;4.20;;
58354;SDS011;44160;49.080;19.302;2023-07-24T06:56:32;7.13;;;4.38;;
58354;SDS011;44160;49.080;19.302;2023-07-24T06:58:58;5.63;;;3.60;;
58354;SDS011;44160;49.080;19.302;2023-07-24T07:01:24;7.45;;;4.07;;
58354;SDS011;44160;49.080;19.302;2023-07-24T07:03:50;5.97;;;3.72;;
58354;SDS011;44160;49.080;19.302;2023-07-24T07:06:16;7.25;;;3.70;;
58354;SDS011;44160;49.080;19.302;2023-07-24T07:08:42;5.88;;;3.65;;
58354;SDS011;44160;49.080;19.302;2023-07-24T07:11:09;6.40;;;3.83;;
58354;SDS011;44160;49.080;19.302;2023-07-24T07:13:35;5.28;;;3.97;;
58354;SDS011;44160;49.080;19.302;2023-07-24T07:16:01;6.35;;;4.28;;
58354;SDS011;44160;49.080;19.302;2023-07-24T07:18:27;7.45;;;4.13;;
58354;SDS011;44160;49.080;19.302;2023-07-24T07:20:53;4.88;;;3.85;;
58354;SDS011;44160;49.080;19.302;2023-07-24T07:23:19;4.93;;;3.70;;
58354;SDS011;44160;49.080;19.302;2023-07-24T07:25:45;7.72;;;4.13;;
58354;SDS011;44160;49.080;19.302;2023-07-24T07:28:12;8.70;;;4.05;;
58354;SDS011;44160;49.080;19.302;2023-07-24T07:30:38;9.15;;;4.28;;
58354;SDS011;44160;49.080;19.302;2023-07-24T07:33:04;5.90;;;3.80;;
58354;SDS011;44160;49.080;19.302;2023-07-24T07:35:33;8.07;;;3.22;;
58354;SDS011;44160;49.080;19.302;2023-07-24T07:38:00;6.60;;;3.88;;
58354;SDS011;44160;49.080;19.302;2023-07-24T07:40:26;4.88;;;3.85;;
58354;SDS011;44160;49.080;19.302;2023-07-24T07:42:53;4.88;;;3.92;;
58354;SDS011;44160;49.080;19.302;2023-07-24T07:45:19;5.38;;;3.83;;
58354;SDS011;44160;49.080;19.302;2023-07-24T07:47:45;4.63;;;3.47;;
58354;SDS011;44160;49.080;19.302;2023-07-24T07:50:11;7.20;;;4.55;;
58354;SDS011;44160;49.080;19.302;2023-07-24T07:52:37;8.05;;;3.58;;
58354;SDS011;44160;49.080;19.302;2023-07-24T07:55:03;7.25;;;3.88;;
58354;SDS011;44160;49.080;19.302;2023-07-24T07:57:31;7.15;;;4.13;;
58354;SDS011;44160;49.080;19.302;2023-07-24T07:59:57;8.15;;;4.25;;
58354;SDS011;44160;49.080;19.302;2023-07-24T08:02:23;4.80;;;3.60;;
58354;SDS011;44160;49.080;19.302;2023-07-24T08:04:49;4.97;;;3.72;;
58354;SDS011;44160;49.080;19.302;2023-07-24T08:07:15;10.00;;;4.13;;
58354;SDS011;44160;49.080;19.302;2023-07-24T08:09:41;5.63;;;3.78;;
58354;SDS011;44160;49.080;19.302;2023-07-24T08:12:07;8.32;;;4.32;;
58354;SDS011;44160;49.080;19.302;2023-07-24T08:14:33;4.72;;;4.18;;
58354;SDS011;44160;49.080;19.302;2023-07-24T08:16:59;5.68;;;3.95;;
58354;SDS011;44160;49.080;19.302;2023-07-24T08:19:28;7.57;;;4.63;;
58354;SDS011;44160;49.080;19.302;2023-07-24T08:21:54;7.00;;;4.10;;
58354;SDS011;44160;49.080;19.302;2023-07-24T08:24:21;5.03;;;4.00;;
58354;SDS011;44160;49.080;19.302;2023-07-24T08:26:47;9.35;;;4.22;;
58354;SDS011;44160;49.080;19.302;2023-07-24T08:29:13;4.75;;;4.00;;
58354;SDS011;44160;49.080;19.302;2023-07-24T08:31:41;6.82;;;4.20;;
58354;SDS011;44160;49.080;19.302;2023-07-24T08:34:11;8.95;;;4.93;;
58354;SDS011;44160;49.080;19.302;2023-07-24T08:36:39;5.75;;;4.00;;
58354;SDS011;44160;49.080;19.302;2023-07-24T08:39:05;5.15;;;4.47;;
58354;SDS011;44160;49.080;19.302;2023-07-24T08:41:31;7.68;;;4.68;;
58354;SDS011;44160;49.080;19.302;2023-07-24T08:43:59;7.45;;;3.55;;
58354;SDS011;44160;49.080;19.302;2023-07-24T08:46:26;5.70;;;4.47;;
58354;SDS011;44160;49.080;19.302;2023-07-24T08:48:52;8.10;;;4.63;;
58354;SDS011;44160;49.080;19.302;2023-07-24T08:51:20;7.43;;;4.95;;
58354;SDS011;44160;49.080;19.302;2023-07-24T08:53:49;5.82;;;4.57;;
58354;SDS011;44160;49.080;19.302;2023-07-24T08:56:15;6.47;;;5.20;;
58354;SDS011;44160;49.080;19.302;2023-07-24T08:58:41;5.53;;;4.70;;
58354;SDS011;44160;49.080;19.302;2023-07-24T09:01:08;8.02;;;4.32;;
58354;SDS011;44160;49.080;19.302;2023-07-24T09:03:35;6.32;;;4.82;;
58354;SDS011;44160;49.080;19.302;2023-07-24T09:06:01;7.28;;;4.55;;
58354;SDS011;44160;49.080;19.302;2023-07-24T09:08:32;6.95;;;5.18;;
58354;SDS011;44160;49.080;19.302;2023-07-24T09:10:59;6.88;;;5.05;;
58354;SDS011;44160;49.080;19.302;2023-07-24T09:13:25;7.63;;;4.55;;
58354;SDS011;44160;49.080;19.302;2023-07-24T09:15:51;6.65;;;4.53;;
58354;SDS011;44160;49.080;19.302;2023-07-24T09:18:17;7.00;;;4.95;;
58354;SDS011;44160;49.080;19.302;2023-07-24T09:20:44;6.45;;;4.70;;
58354;SDS011;44160;49.080;19.302;2023-07-24T09:23:11;8.32;;;5.45;;
58354;SDS011;44160;49.080;19.302;2023-07-24T09:25:38;6.13;;;5.18;;
58354;SDS011;44160;49.080;19.302;2023-07-24T09:28:11;7.13;;;4.70;;
58354;SDS011;44160;49.080;19.302;2023-07-24T09:30:38;8.82;;;4.75;;
58354;SDS011;44160;49.080;19.302;2023-07-24T09:33:04;8.20;;;5.15;;
58354;SDS011;44160;49.080;19.302;2023-07-24T09:35:34;9.07;;;5.63;;
58354;SDS011;44160;49.080;19.302;2023-07-24T09:40:36;11.97;;;5.90;;
58354;SDS011;44160;49.080;19.302;2023-07-24T09:43:03;11.15;;;6.30;;
58354;SDS011;44160;49.080;19.302;2023-07-24T09:45:29;7.85;;;6.03;;
58354;SDS011;44160;49.080;19.302;2023-07-24T09:47:55;9.90;;;6.00;;
58354;SDS011;44160;49.080;19.302;2023-07-24T09:50:25;6.85;;;5.70;;
58354;SDS011;44160;49.080;19.302;2023-07-24T09:52:51;9.38;;;5.13;;
58354;SDS011;44160;49.080;19.302;2023-07-24T09:55:21;7.50;;;5.35;;
58354;SDS011;44160;49.080;19.302;2023-07-24T09:57:54;11.75;;;6.63;;
58354;SDS011;44160;49.080;19.302;2023-07-24T10:00:20;9.60;;;6.30;;
58354;SDS011;44160;49.080;19.302;2023-07-24T10:02:46;11.13;;;5.88;;
58354;SDS011;44160;49.080;19.302;2023-07-24T10:05:13;15.52;;;7.20;;
58354;SDS011;44160;49.080;19.302;2023-07-24T10:07:39;6.72;;;5.28;;
58354;SDS011;44160;49.080;19.302;2023-07-24T10:10:08;9.77;;;5.90;;
58354;SDS011;44160;49.080;19.302;2023-07-24T10:12:34;7.03;;;6.00;;
58354;SDS011;44160;49.080;19.302;2023-07-24T10:15:05;8.35;;;6.55;;
58354;SDS011;44160;49.080;19.302;2023-07-24T10:17:38;8.05;;;5.93;;
58354;SDS011;44160;49.080;19.302;2023-07-24T10:20:04;7.20;;;5.50;;
58354;SDS011;44160;49.080;19.302;2023-07-24T10:22:31;10.27;;;5.88;;
58354;SDS011;44160;49.080;19.302;2023-07-24T10:24:57;7.78;;;5.57;;
58354;SDS011;44160;49.080;19.302;2023-07-24T10:27:24;7.93;;;6.05;;
58354;SDS011;44160;49.080;19.302;2023-07-24T10:32:25;19.23;;;6.90;;
58354;SDS011;44160;49.080;19.302;2023-07-24T10:35:07;8.43;;;5.55;;
58354;SDS011;44160;49.080;19.302;2023-07-24T10:37:34;9.50;;;5.95;;
58354;SDS011;44160;49.080;19.302;2023-07-24T10:40:00;8.02;;;6.05;;
58354;SDS011;44160;49.080;19.302;2023-07-24T10:42:28;7.53;;;5.63;;
58354;SDS011;44160;49.080;19.302;2023-07-24T10:45:04;8.05;;;6.15;;
58354;SDS011;44160;49.080;19.302;2023-07-24T10:47:31;8.13;;;6.15;;
58354;SDS011;44160;49.080;19.302;2023-07-24T10:49:57;7.95;;;6.15;;
58354;SDS011;44160;49.080;19.302;2023-07-24T10:52:30;6.63;;;5.50;;
58354;SDS011;44160;49.080;19.302;2023-07-24T10:54:59;11.50;;;5.75;;
58354;SDS011;44160;49.080;19.302;2023-07-24T10:57:27;7.32;;;5.72;;
58354;SDS011;44160;49.080;19.302;2023-07-24T10:59:53;7.30;;;5.82;;
58354;SDS011;44160;49.080;19.302;2023-07-24T11:02:19;12.18;;;5.45;;
58354;SDS011;44160;49.080;19.302;2023-07-24T11:04:45;6.72;;;5.07;;
58354;SDS011;44160;49.080;19.302;2023-07-24T11:07:11;6.93;;;5.63;;
58354;SDS011;44160;49.080;19.302;2023-07-24T11:09:38;9.68;;;5.80;;
58354;SDS011;44160;49.080;19.302;2023-07-24T11:12:18;9.80;;;5.65;;
58354;SDS011;44160;49.080;19.302;2023-07-24T11:14:50;9.80;;;5.55;;
58354;SDS011;44160;49.080;19.302;2023-07-24T11:17:16;7.10;;;5.50;;
58354;SDS011;44160;49.080;19.302;2023-07-24T11:19:42;9.02;;;5.65;;
58354;SDS011;44160;49.080;19.302;2023-07-24T11:22:08;8.15;;;5.85;;
58354;SDS011;44160;49.080;19.302;2023-07-24T11:24:41;9.10;;;5.63;;
58354;SDS011;44160;49.080;19.302;2023-07-24T11:27:14;8.55;;;5.82;;
58354;SDS011;44160;49.080;19.302;2023-07-24T11:29:41;10.73;;;5.28;;
58354;SDS011;44160;49.080;19.302;2023-07-24T11:32:07;7.05;;;5.80;;
58354;SDS011;44160;49.080;19.302;2023-07-24T11:34:36;13.27;;;6.07;;
58354;SDS011;44160;49.080;19.302;2023-07-24T11:37:02;6.97;;;5.35;;
58354;SDS011;44160;49.080;19.302;2023-07-24T11:39:31;7.18;;;5.90;;
58354;SDS011;44160;49.080;19.302;2023-07-24T11:42:00;7.70;;;5.43;;
58354;SDS011;44160;49.080;19.302;2023-07-24T11:44:27;9.13;;;5.65;;
58354;SDS011;44160;49.080;19.302;2023-07-24T11:47:00;7.97;;;5.80;;
58354;SDS011;44160;49.080;19.302;2023-07-24T11:49:27;6.85;;;5.63;;
58354;SDS011;44160;49.080;19.302;2023-07-24T11:51:59;8.00;;;5.95;;
58354;SDS011;44160;49.080;19.302;2023-07-24T11:54:25;10.60;;;6.45;;
58354;SDS011;44160;49.080;19.302;2023-07-24T11:56:51;9.68;;;6.45;;
58354;SDS011;44160;49.080;19.302;2023-07-24T11:59:18;7.57;;;5.93;;
58354;SDS011;44160;49.080;19.302;2023-07-24T12:01:47;7.50;;;5.82;;
58354;SDS011;44160;49.080;19.302;2023-07-24T12:04:14;11.50;;;6.60;;
58354;SDS011;44160;49.080;19.302;2023-07-24T12:06:40;8.90;;;6.45;;
58354;SDS011;44160;49.080;19.302;2023-07-24T12:09:07;9.13;;;5.45;;
58354;SDS011;44160;49.080;19.302;2023-07-24T12:11:33;8.73;;;6.78;;
58354;SDS011;44160;49.080;19.302;2023-07-24T12:13:59;6.85;;;5.25;;
58354;SDS011;44160;49.080;19.302;2023-07-24T12:16:25;9.48;;;6.03;;
58354;SDS011;44160;49.080;19.302;2023-07-24T12:18:51;7.53;;;5.75;;
58354;SDS011;44160;49.080;19.302;2023-07-24T12:21:17;8.48;;;6.10;;
58354;SDS011;44160;49.080;19.302;2023-07-24T12:23:43;11.10;;;5.60;;
58354;SDS011;44160;49.080;19.302;2023-07-24T12:26:09;8.45;;;5.55;;
58354;SDS011;44160;49.080;19.302;2023-07-24T12:28:35;8.02;;;5.85;;
58354;SDS011;44160;49.080;19.302;2023-07-24T12:31:01;9.45;;;5.63;;
58354;SDS011;44160;49.080;19.302;2023-07-24T12:33:28;8.27;;;5.25;;
58354;SDS011;44160;49.080;19.302;2023-07-24T12:35:54;8.52;;;6.13;;
58354;SDS011;44160;49.080;19.302;2023-07-24T12:38:20;7.38;;;5.45;;
58354;SDS011;44160;49.080;19.302;2023-07-24T12:40:49;7.40;;;5.13;;
58354;SDS011;44160;49.080;19.302;2023-07-24T12:43:18;7.78;;;5.97;;
58354;SDS011;44160;49.080;19.302;2023-07-24T12:45:44;11.38;;;6.32;;
58354;SDS011;44160;49.080;19.302;2023-07-24T12:48:10;10.57;;;6.95;;
58354;SDS011;44160;49.080;19.302;2023-07-24T12:50:36;8.27;;;5.72;;
58354;SDS011;44160;49.080;19.302;2023-07-24T12:53:02;9.32;;;5.90;;
58354;SDS011;44160;49.080;19.302;2023-07-24T12:55:28;8.90;;;5.32;;
58354;SDS011;44160;49.080;19.302;2023-07-24T12:57:54;10.23;;;5.97;;
58354;SDS011;44160;49.080;19.302;2023-07-24T13:00:21;8.60;;;6.30;;
58354;SDS011;44160;49.080;19.302;2023-07-24T13:02:48;11.77;;;5.68;;
58354;SDS011;44160;49.080;19.302;2023-07-24T13:05:14;10.77;;;6.95;;
58354;SDS011;44160;49.080;19.302;2023-07-24T13:07:40;8.35;;;5.97;;
58354;SDS011;44160;49.080;19.302;2023-07-24T13:10:07;13.27;;;6.53;;
58354;SDS011;44160;49.080;19.302;2023-07-24T13:12:33;10.30;;;6.60;;
58354;SDS011;44160;49.080;19.302;2023-07-24T13:14:59;10.38;;;6.57;;
58354;SDS011;44160;49.080;19.302;2023-07-24T13:17:25;11.80;;;7.05;;
58354;SDS011;44160;49.080;19.302;2023-07-24T13:19:51;7.00;;;5.70;;
58354;SDS011;44160;49.080;19.302;2023-07-24T13:22:17;9.77;;;7.10;;
58354;SDS011;44160;49.080;19.302;2023-07-24T13:24:43;10.32;;;6.22;;
58354;SDS011;44160;49.080;19.302;2023-07-24T13:27:09;10.25;;;6.40;;
58354;SDS011;44160;49.080;19.302;2023-07-24T13:29:35;8.98;;;6.45;;
58354;SDS011;44160;49.080;19.302;2023-07-24T13:32:01;8.93;;;6.35;;
58354;SDS011;44160;49.080;19.302;2023-07-24T13:34:27;9.60;;;6.90;;
58354;SDS011;44160;49.080;19.302;2023-07-24T13:36:53;10.07;;;7.15;;
58354;SDS011;44160;49.080;19.302;2023-07-24T13:39:19;9.02;;;6.50;;
58354;SDS011;44160;49.080;19.302;2023-07-24T13:41:45;12.05;;;6.80;;
58354;SDS011;44160;49.080;19.302;2023-07-24T13:44:11;12.27;;;7.15;;
58354;SDS011;44160;49.080;19.302;2023-07-24T13:46:37;9.88;;;6.95;;
58354;SDS011;44160;49.080;19.302;2023-07-24T13:49:03;10.25;;;6.95;;
58354;SDS011;44160;49.080;19.302;2023-07-24T13:51:29;10.93;;;7.78;;
58354;SDS011;44160;49.080;19.302;2023-07-24T13:53:55;10.15;;;6.97;;
58354;SDS011;44160;49.080;19.302;2023-07-24T13:56:21;13.98;;;7.50;;
58354;SDS011;44160;49.080;19.302;2023-07-24T13:58:48;10.05;;;6.93;;
58354;SDS011;44160;49.080;19.302;2023-07-24T14:01:14;11.32;;;6.88;;
58354;SDS011;44160;49.080;19.302;2023-07-24T14:03:40;11.38;;;6.95;;
58354;SDS011;44160;49.080;19.302;2023-07-24T14:06:06;9.70;;;7.03;;
58354;SDS011;44160;49.080;19.302;2023-07-24T14:08:32;11.15;;;7.07;;
58354;SDS011;44160;49.080;19.302;2023-07-24T14:10:58;10.07;;;7.55;;
58354;SDS011;44160;49.080;19.302;2023-07-24T14:13:27;9.15;;;7.07;;
58354;SDS011;44160;49.080;19.302;2023-07-24T14:15:53;8.88;;;7.00;;
58354;SDS011;44160;49.080;19.302;2023-07-24T14:18:19;11.60;;;7.57;;
58354;SDS011;44160;49.080;19.302;2023-07-24T14:20:45;9.63;;;6.82;;
58354;SDS011;44160;49.080;19.302;2023-07-24T14:23:12;12.02;;;7.18;;
58354;SDS011;44160;49.080;19.302;2023-07-24T14:25:38;9.82;;;7.47;;
58354;SDS011;44160;49.080;19.302;2023-07-24T14:28:04;12.93;;;7.47;;
58354;SDS011;44160;49.080;19.302;2023-07-24T14:30:30;12.00;;;7.25;;
58354;SDS011;44160;49.080;19.302;2023-07-24T14:32:56;8.82;;;6.65;;